createdAt,value
2019-05-09T00:00:43.744Z,11.53
2019-05-09T00:03:18.218Z,10.97
2019-05-09T00:06:04.601Z,11.90
2019-05-09T00:08:36.932Z,10.23
2019-05-09T00:11:08.826Z,11.03
2019-05-09T00:13:43.460Z,14.23
2019-05-09T00:16:16.363Z,10.93
2019-05-09T00:18:54.049Z,9.53
2019-05-09T00:21:28.402Z,10.37
2019-05-09T00:24:03.511Z,10.20
2019-05-09T00:26:36.755Z,10.77
2019-05-09T00:29:21.163Z,10.57
2019-05-09T00:31:54.535Z,12.27
2019-05-09T00:34:39.945Z,10.97
2019-05-09T00:37:13.534Z,11.43
2019-05-09T00:39:45.688Z,10.73
2019-05-09T00:42:18.622Z,10.63
2019-05-09T00:44:58.928Z,12.17
2019-05-09T00:47:32.927Z,11.97
2019-05-09T00:50:08.377Z,10.83
2019-05-09T00:52:43.045Z,11.10
2019-05-09T00:55:15.842Z,10.03
2019-05-09T00:57:48.849Z,9.93
2019-05-09T01:00:24.124Z,10.33
2019-05-09T01:02:56.671Z,11.23
2019-05-09T01:05:28.416Z,10.03
2019-05-09T01:08:04.194Z,10.00
2019-05-09T01:10:37.145Z,9.73
2019-05-09T01:13:14.037Z,9.57
2019-05-09T01:15:46.496Z,9.87
2019-05-09T01:18:20.440Z,10.20
2019-05-09T01:20:53.093Z,10.10
2019-05-09T01:23:27.630Z,11.50
2019-05-09T01:25:59.736Z,10.23
2019-05-09T01:28:33.854Z,10.50
2019-05-09T01:31:07.449Z,10.23
2019-05-09T01:33:53.280Z,10.90
2019-05-09T01:36:26.163Z,10.60
2019-05-09T01:38:59.060Z,10.20
2019-05-09T01:41:34.067Z,11.50
2019-05-09T01:44:06.567Z,11.13
2019-05-09T01:46:39.548Z,11.20
2019-05-09T01:49:13.800Z,12.13
2019-05-09T01:51:47.068Z,11.60
2019-05-09T01:54:20.495Z,10.90
2019-05-09T01:56:53.776Z,11.53
2019-05-09T01:59:25.839Z,10.80
2019-05-09T02:01:57.472Z,10.43
2019-05-09T02:04:30.743Z,11.27
2019-05-09T02:07:04.469Z,11.23
2019-05-09T02:09:36.441Z,11.23
2019-05-09T02:12:09.423Z,11.10
2019-05-09T02:15:03.881Z,11.20
2019-05-09T02:17:58.900Z,10.70
2019-05-09T02:20:24.234Z,10.17
2019-05-09T02:22:57.315Z,11.03
2019-05-09T02:25:30.318Z,11.10
2019-05-09T02:28:03.500Z,11.67
2019-05-09T02:30:36.185Z,11.57
2019-05-09T02:33:09.278Z,11.80
2019-05-09T02:35:56.254Z,11.60
2019-05-09T02:38:19.718Z,11.20
2019-05-09T02:40:51.791Z,11.13
2019-05-09T02:43:24.606Z,11.60
2019-05-09T02:46:11.447Z,12.87
2019-05-09T02:48:43.174Z,11.27
2019-05-09T02:51:14.924Z,10.60
2019-05-09T02:53:48.696Z,11.30
2019-05-09T02:56:21.816Z,11.97
2019-05-09T02:59:05.309Z,11.27
2019-05-09T03:01:49.559Z,13.07
2019-05-09T03:04:21.384Z,11.70
2019-05-09T03:06:54.346Z,12.70
2019-05-09T03:09:28.811Z,13.03
2019-05-09T03:12:21.262Z,11.90
2019-05-09T03:14:38.815Z,11.67
2019-05-09T03:17:11.829Z,11.50
2019-05-09T03:19:44.833Z,12.63
2019-05-09T03:22:20.378Z,11.80
2019-05-09T03:24:52.034Z,12.03
2019-05-09T03:27:48.265Z,12.43
2019-05-09T03:30:21.012Z,11.57
2019-05-09T03:32:53.129Z,11.50
2019-05-09T03:35:24.859Z,11.90
2019-05-09T03:38:08.261Z,11.87
2019-05-09T03:40:40.051Z,11.90
2019-05-09T03:43:13.065Z,13.23
2019-05-09T03:45:49.135Z,12.33
2019-05-09T03:48:34.519Z,12.17
2019-05-09T03:51:08.098Z,12.07
2019-05-09T03:53:40.661Z,13.03
2019-05-09T03:56:15.279Z,13.63
2019-05-09T03:58:47.500Z,13.43
2019-05-09T04:01:19.629Z,13.07
2019-05-09T04:03:51.380Z,13.63
2019-05-09T04:06:24.363Z,13.30
2019-05-09T04:08:58.540Z,13.30
2019-05-09T04:11:31.564Z,12.70
2019-05-09T04:14:21.351Z,12.23
2019-05-09T04:16:52.954Z,12.57
2019-05-09T04:19:27.881Z,13.27
2019-05-09T04:22:02.188Z,12.80
2019-05-09T04:24:33.214Z,15.63
2019-05-09T04:27:07.815Z,13.50
2019-05-09T04:29:39.715Z,12.60
2019-05-09T04:32:11.448Z,13.73
2019-05-09T04:34:43.180Z,14.87
2019-05-09T04:37:15.292Z,13.83
2019-05-09T04:39:47.621Z,14.27
2019-05-09T04:42:19.460Z,12.80
2019-05-09T04:44:57.594Z,13.40
2019-05-09T04:47:28.756Z,12.47
2019-05-09T04:50:07.608Z,12.03
2019-05-09T04:52:39.992Z,12.50
2019-05-09T04:55:12.799Z,12.90
2019-05-09T04:57:45.624Z,12.80
2019-05-09T05:00:19.100Z,13.00
2019-05-09T05:02:52.431Z,12.50
2019-05-09T05:05:24.320Z,12.20
2019-05-09T05:07:57.359Z,12.80
2019-05-09T05:10:30.271Z,11.43
2019-05-09T05:13:02.012Z,12.03
2019-05-09T05:15:33.763Z,12.97
2019-05-09T05:18:05.627Z,12.23
2019-05-09T05:20:38.509Z,12.53
2019-05-09T05:23:11.999Z,13.07
2019-05-09T05:25:43.689Z,12.20
2019-05-09T05:28:17.568Z,12.87
2019-05-09T05:30:51.398Z,14.00
2019-05-09T05:33:27.886Z,12.47
2019-05-09T13:22:52.060Z,18.93
2019-05-09T13:25:34.040Z,26.63
2019-05-09T13:28:08.299Z,19.43
2019-05-09T13:30:39.797Z,16.80
2019-05-09T13:33:14.024Z,21.23
2019-05-09T13:35:45.690Z,17.87
2019-05-09T13:38:18.017Z,19.40
2019-05-09T13:40:53.475Z,14.60
2019-05-09T13:43:24.672Z,17.70
2019-05-09T13:45:58.683Z,13.87
2019-05-09T13:48:55.225Z,14.80
2019-05-09T13:51:04.004Z,17.57
2019-05-09T13:53:35.744Z,14.37
2019-05-09T13:56:08.462Z,22.00
2019-05-09T13:58:41.640Z,18.93
2019-05-09T14:01:14.284Z,19.20
2019-05-09T14:03:45.808Z,19.60
2019-05-09T14:06:17.569Z,18.17
2019-05-09T14:08:49.800Z,15.07
2019-05-09T14:11:23.113Z,14.00
2019-05-09T14:13:54.655Z,24.30
2019-05-09T14:16:28.660Z,22.33
2019-05-09T14:19:23.979Z,41.47
2019-05-09T14:21:33.380Z,20.57
2019-05-09T14:24:14.054Z,19.93
2019-05-09T14:26:40.371Z,16.33
2019-05-09T14:29:13.316Z,16.30
2019-05-09T14:31:45.372Z,14.53
2019-05-09T14:34:19.714Z,15.93
2019-05-09T14:36:51.948Z,17.87
2019-05-09T14:39:23.952Z,14.87
2019-05-09T14:41:57.807Z,24.63
2019-05-09T14:44:30.238Z,27.10
2019-05-09T14:47:02.251Z,24.43
2019-05-09T14:49:41.413Z,24.60
2019-05-09T14:52:08.537Z,16.87
2019-05-09T14:54:40.642Z,29.00
2019-05-09T14:57:14.020Z,32.23
2019-05-09T14:59:45.645Z,47.57
2019-05-09T15:02:20.659Z,39.20
2019-05-09T15:04:52.333Z,29.10
2019-05-09T15:07:24.099Z,34.60
2019-05-09T15:09:57.583Z,26.30
2019-05-09T15:12:31.291Z,24.53
2019-05-09T15:15:07.582Z,27.27
2019-05-09T15:17:39.075Z,41.67
2019-05-09T15:20:12.700Z,22.50
2019-05-09T15:22:47.750Z,23.23
2019-05-09T15:25:20.630Z,19.03
2019-05-09T15:27:53.178Z,31.53
2019-05-09T15:30:24.966Z,27.87
2019-05-09T15:33:01.394Z,22.60
2019-05-09T15:35:33.077Z,26.17
2019-05-09T15:38:11.322Z,27.83
2019-05-09T15:40:42.910Z,25.43
2019-05-09T15:43:14.776Z,26.40
2019-05-09T15:45:57.929Z,22.83
2019-05-09T15:48:29.308Z,22.70
2019-05-09T15:51:01.161Z,25.80
2019-05-09T15:53:38.097Z,16.97
2019-05-09T15:56:09.847Z,23.73
2019-05-09T15:58:41.925Z,20.80
2019-05-09T16:01:13.660Z,26.00
2019-05-09T16:03:48.604Z,27.30
2019-05-09T16:06:22.308Z,19.97
2019-05-09T16:08:58.518Z,24.20
2019-05-09T16:11:32.125Z,19.33
2019-05-09T16:14:03.895Z,20.90
2019-05-09T16:16:35.726Z,48.33
2019-05-09T16:19:09.179Z,36.20
2019-05-09T16:21:40.988Z,33.30
2019-05-09T16:24:18.860Z,21.90
2019-05-09T16:26:53.756Z,38.80
2019-05-09T16:29:30.364Z,32.27
2019-05-09T16:32:03.518Z,20.30
2019-05-09T16:34:40.079Z,19.07
2019-05-09T16:37:13.464Z,38.50
2019-05-09T16:39:47.023Z,22.57
2019-05-09T16:42:21.763Z,27.17
2019-05-09T16:44:54.663Z,24.23
2019-05-09T16:47:28.441Z,29.13
2019-05-09T16:50:01.150Z,29.47
2019-05-09T16:52:39.847Z,37.73
2019-05-09T16:55:12.635Z,37.63
2019-05-09T16:57:44.291Z,41.73
2019-05-09T17:00:30.226Z,49.67
2019-05-09T17:03:01.793Z,27.10
2019-05-09T17:05:33.388Z,49.17
2019-05-09T17:08:05.133Z,36.03
2019-05-09T17:10:38.471Z,30.13
2019-05-09T17:13:10.207Z,34.93
2019-05-09T17:15:41.989Z,44.80
2019-05-09T17:18:15.266Z,35.77
2019-05-09T17:20:50.616Z,52.10
2019-05-09T17:23:24.135Z,97.00
2019-05-09T17:25:57.918Z,86.97
2019-05-09T17:28:29.812Z,93.27
2019-05-09T17:31:04.663Z,44.17
2019-05-09T17:33:37.944Z,52.00
2019-05-09T17:36:10.049Z,60.23
2019-05-09T17:38:43.855Z,68.07
2019-05-09T17:41:19.018Z,107.53
2019-05-09T17:43:54.958Z,84.97
2019-05-09T17:46:28.060Z,64.80
2019-05-09T17:48:59.712Z,51.70
2019-05-09T17:51:33.868Z,52.83
2019-05-09T17:54:07.828Z,73.57
2019-05-09T17:56:40.407Z,80.80
2019-05-09T17:59:18.525Z,75.20
2019-05-09T18:01:51.096Z,87.83
2019-05-09T18:04:22.892Z,90.67
2019-05-09T18:06:54.698Z,81.40
2019-05-09T18:09:28.589Z,83.17
2019-05-09T18:12:00.711Z,55.47
2019-05-09T18:14:33.077Z,87.73
2019-05-09T18:17:05.008Z,47.03
2019-05-09T18:19:38.105Z,42.60
2019-05-09T18:22:10.898Z,38.00
2019-05-09T18:24:42.785Z,51.30
2019-05-09T18:27:14.617Z,49.10
2019-05-09T18:29:47.398Z,48.13
2019-05-09T18:32:31.114Z,47.73
2019-05-09T18:35:13.058Z,43.90
2019-05-09T18:37:48.260Z,44.90
2019-05-09T18:40:21.852Z,32.83
2019-05-09T18:42:53.603Z,48.90
2019-05-09T18:45:30.237Z,39.73
2019-05-09T18:48:02.102Z,50.77
2019-05-09T18:50:33.885Z,47.53
2019-05-09T18:53:05.537Z,34.30
2019-05-09T18:55:37.300Z,24.17
2019-05-09T18:58:10.739Z,19.30
2019-05-09T19:00:45.898Z,23.00
2019-05-09T19:03:17.540Z,21.60
2019-05-09T19:05:49.292Z,19.53
2019-05-09T19:08:22.721Z,19.43
2019-05-09T19:10:56.026Z,20.77
2019-05-09T19:13:27.817Z,19.67
2019-05-09T19:16:16.488Z,20.33
2019-05-09T19:19:08.134Z,19.93
2019-05-09T19:21:41.438Z,20.13
2019-05-09T19:24:13.101Z,19.43
2019-05-09T19:26:44.859Z,19.07
2019-05-09T19:29:18.149Z,17.00
2019-05-09T19:31:49.915Z,16.67
2019-05-09T19:34:21.463Z,17.87
2019-05-09T19:36:53.140Z,20.50
2019-05-09T19:39:24.913Z,20.03
2019-05-09T19:41:57.380Z,21.03
2019-05-09T19:44:29.228Z,21.57
2019-05-09T19:47:03.968Z,22.00
2019-05-09T19:49:36.596Z,21.50
2019-05-09T19:52:09.517Z,22.77
2019-05-09T19:54:41.269Z,21.77
2019-05-09T19:57:13.892Z,23.17
2019-05-09T19:59:50.462Z,22.23
2019-05-09T20:02:22.615Z,25.77
2019-05-09T20:04:57.378Z,23.50
2019-05-09T20:07:32.181Z,23.67
2019-05-09T20:10:09.910Z,27.33
2019-05-09T20:12:59.356Z,27.73
2019-05-09T20:15:30.907Z,27.73
2019-05-09T20:18:02.673Z,44.20
2019-05-09T20:20:34.482Z,38.50
2019-05-09T20:23:06.249Z,43.07
2019-05-09T20:25:38.005Z,43.43
2019-05-09T20:28:09.764Z,41.97
2019-05-09T20:30:43.402Z,23.97
2019-05-09T20:33:17.228Z,24.23
2019-05-09T20:35:55.982Z,23.63
2019-05-09T20:38:31.882Z,23.97
2019-05-09T20:41:09.998Z,21.27
2019-05-09T20:43:44.586Z,19.60
2019-05-09T20:46:16.538Z,21.93
2019-05-09T20:48:48.770Z,23.63
2019-05-09T20:51:27.053Z,22.90
2019-05-09T20:54:19.950Z,21.70
2019-05-09T20:56:37.168Z,48.30
2019-05-09T20:59:10.608Z,32.53
2019-05-09T21:01:42.911Z,28.93
2019-05-09T21:04:15.968Z,30.40
2019-05-09T21:06:48.151Z,27.97
2019-05-09T21:09:21.678Z,33.17
2019-05-09T21:11:53.697Z,35.47
2019-05-09T21:14:25.524Z,34.47
2019-05-09T21:16:57.573Z,33.47
2019-05-09T21:19:29.609Z,42.77
2019-05-09T21:22:01.698Z,42.93
2019-05-09T21:24:33.724Z,50.73
2019-05-09T21:27:05.566Z,50.87
2019-05-09T21:29:38.466Z,51.47
2019-05-09T21:32:10.319Z,45.43
2019-05-09T21:34:42.181Z,26.60
2019-05-09T21:37:14.150Z,25.57
2019-05-09T21:39:46.235Z,27.03
2019-05-09T21:42:18.011Z,30.33
2019-05-09T21:44:49.719Z,27.23
2019-05-09T21:47:21.558Z,29.63
2019-05-09T21:49:54.498Z,28.87
2019-05-09T21:52:27.217Z,30.10
2019-05-09T21:54:58.953Z,31.97
2019-05-09T21:57:31.963Z,29.93
2019-05-09T22:00:05.993Z,29.27
2019-05-09T22:02:39.432Z,31.27
2019-05-09T22:05:12.448Z,29.43
2019-05-09T22:07:44.203Z,31.40
2019-05-09T22:10:16.302Z,29.97
2019-05-09T22:12:48.060Z,30.63
2019-05-09T22:15:20.843Z,27.97
2019-05-09T22:17:52.555Z,30.37
2019-05-09T22:20:25.771Z,28.67
2019-05-09T22:22:57.517Z,26.50
2019-05-09T22:25:29.258Z,24.63
2019-05-09T22:28:00.994Z,24.57
2019-05-09T22:30:32.839Z,24.70
2019-05-09T22:33:04.614Z,24.60
2019-05-09T22:35:36.291Z,23.43
2019-05-09T22:38:08.115Z,28.07
2019-05-09T22:40:39.868Z,30.90
2019-05-09T22:43:13.135Z,33.63
2019-05-09T22:45:45.500Z,25.50
2019-05-09T22:48:17.235Z,22.87
2019-05-09T22:50:48.969Z,23.83
2019-05-09T22:53:20.828Z,23.37
2019-05-09T22:55:52.552Z,29.23
2019-05-09T22:58:24.301Z,31.87
2019-05-09T23:00:56.028Z,28.73
2019-05-09T23:03:27.785Z,21.27
2019-05-09T23:05:59.542Z,19.83
2019-05-09T23:08:31.304Z,20.43
2019-05-09T23:11:03.041Z,22.37
2019-05-09T23:13:36.517Z,28.57
2019-05-09T23:16:09.571Z,21.67
2019-05-09T23:18:41.391Z,21.93
2019-05-09T23:21:16.481Z,21.00
2019-05-09T23:23:56.064Z,19.23
2019-05-09T23:26:27.796Z,20.27
2019-05-09T23:28:59.560Z,22.70
2019-05-09T23:31:38.938Z,20.00
2019-05-09T23:34:10.686Z,19.77
2019-05-09T23:36:42.637Z,19.33
2019-05-09T23:39:25.005Z,21.60
2019-05-09T23:41:56.927Z,22.97
2019-05-09T23:44:28.879Z,22.90
2019-05-09T23:47:00.659Z,22.00
2019-05-09T23:49:32.293Z,19.63
2019-05-09T23:52:04.143Z,19.63
2019-05-09T23:54:53.599Z,17.70
2019-05-09T23:57:43.302Z,17.50
